Time;durP1;ratioP1;P1;durP2;ratioP2;P2;SDS_P1;SDS_P2;PMS_P1;PMS_P2;Temp;Humidity;BMP_temperature;BMP_pressure;BME280_temperature;BME280_humidity;BME280_pressure;Samples;Min_cycle;Max_cycle;Signal;HPM_P1;HPM_P2
2023/04/30 00:02:08;;;;;;;23.75;21.13;;;10.40;99.90;;;;;;5096003;28;20048;-62
2023/04/30 00:04:34;;;;;;;27.90;20.50;;;10.30;99.90;;;;;;5095848;28;20119;-63
2023/04/30 00:07:01;;;;;;;24.25;20.48;;;10.30;99.90;;;;;;5095617;28;20040;-62
2023/04/30 00:09:28;;;;;;;26.65;21.75;;;10.20;99.90;;;;;;5095564;28;20506;-63
2023/04/30 00:11:55;;;;;;;29.67;22.13;;;10.20;99.90;;;;;;5095798;28;20040;-63
2023/04/30 00:14:21;;;;;;;27.42;21.80;;;10.20;99.90;;;;;;5095635;28;20556;-63
2023/04/30 00:16:48;;;;;;;27.20;23.25;;;10.10;99.90;;;;;;5094869;28;20051;-62
2023/04/30 00:19:15;;;;;;;28.73;23.98;;;10.20;99.90;;;;;;5096015;28;20044;-63
2023/04/30 00:21:42;;;;;;;30.40;23.13;;;10.10;99.90;;;;;;5095765;28;20048;-62
2023/04/30 00:24:08;;;;;;;31.23;23.08;;;10.10;99.90;;;;;;5095987;28;20037;-63
2023/04/30 00:26:35;;;;;;;30.92;24.02;;;10.10;99.90;;;;;;5095723;28;20089;-62
2023/04/30 00:29:02;;;;;;;26.77;23.92;;;10.10;99.90;;;;;;5094002;28;20039;-64
2023/04/30 00:31:29;;;;;;;30.13;24.17;;;10.00;99.90;;;;;;5094006;28;20058;-64
2023/04/30 00:33:56;;;;;;;30.08;22.98;;;10.10;99.90;;;;;;5095259;28;20036;-65
2023/04/30 00:36:23;;;;;;;29.63;24.17;;;10.00;99.90;;;;;;5094368;28;20048;-63
2023/04/30 00:38:49;;;;;;;29.38;23.30;;;10.00;99.90;;;;;;5094102;28;20040;-63
2023/04/30 00:41:16;;;;;;;30.60;24.27;;;9.90;99.90;;;;;;5093736;28;20517;-64
2023/04/30 00:43:45;;;;;;;31.15;24.98;;;9.90;99.90;;;;;;5095131;28;20044;-64
2023/04/30 00:46:12;;;;;;;27.60;22.65;;;9.80;99.90;;;;;;5093909;28;20052;-62
2023/04/30 00:48:39;;;;;;;26.85;23.02;;;9.80;99.90;;;;;;5093725;28;20082;-64
2023/04/30 00:51:06;;;;;;;29.73;23.38;;;9.70;99.90;;;;;;5094784;28;20378;-63
2023/04/30 00:53:32;;;;;;;25.63;22.95;;;9.70;99.90;;;;;;5095184;28;20047;-63
2023/04/30 00:55:59;;;;;;;30.42;23.85;;;9.70;99.90;;;;;;5093584;28;20044;-64
2023/04/30 00:58:26;;;;;;;29.45;24.27;;;9.60;99.90;;;;;;5093907;28;20068;-63
2023/04/30 01:00:53;;;;;;;29.48;24.25;;;9.60;99.90;;;;;;5094711;28;20048;-64
2023/04/30 01:03:21;;;;;;;28.40;24.65;;;9.60;99.90;;;;;;5094993;28;20044;-62
2023/04/30 01:05:49;;;;;;;30.50;25.80;;;9.60;99.90;;;;;;5093610;28;20135;-63
2023/04/30 01:08:15;;;;;;;28.52;25.55;;;9.50;99.90;;;;;;5076610;28;20035;-64
2023/04/30 01:10:42;;;;;;;28.30;25.02;;;9.50;99.90;;;;;;5076347;28;20040;-63
2023/04/30 01:13:09;;;;;;;30.33;25.60;;;9.50;99.90;;;;;;5093325;28;20460;-64
2023/04/30 01:15:36;;;;;;;32.13;26.48;;;9.50;99.90;;;;;;5094580;28;20036;-64
2023/04/30 01:18:02;;;;;;;32.13;26.33;;;9.50;99.90;;;;;;5093433;28;20040;-63
2023/04/30 01:20:29;;;;;;;33.13;26.52;;;9.50;99.90;;;;;;5094558;28;20048;-63
2023/04/30 01:22:56;;;;;;;30.20;26.55;;;9.50;99.90;;;;;;5094605;28;20051;-64
2023/04/30 01:25:23;;;;;;;32.20;28.02;;;9.50;99.90;;;;;;5093349;28;20048;-63
2023/04/30 01:27:50;;;;;;;30.60;27.33;;;9.50;99.90;;;;;;5092865;28;20059;-64
2023/04/30 01:30:19;;;;;;;31.38;26.80;;;9.50;99.90;;;;;;5093104;28;20074;-63
2023/04/30 01:32:45;;;;;;;35.47;28.85;;;9.50;99.90;;;;;;5093006;28;20083;-64
2023/04/30 01:35:13;;;;;;;32.53;27.25;;;9.50;99.90;;;;;;5093273;28;20044;-62
2023/04/30 01:37:40;;;;;;;33.45;27.63;;;9.40;99.90;;;;;;5092754;28;20093;-63
2023/04/30 01:40:06;;;;;;;34.85;28.13;;;9.30;99.90;;;;;;5094015;28;20556;-63
2023/04/30 01:42:33;;;;;;;29.65;26.48;;;9.30;99.90;;;;;;5076221;28;20044;-63
2023/04/30 01:45:00;;;;;;;29.25;25.63;;;9.30;99.90;;;;;;5092680;28;20085;-62
2023/04/30 01:47:27;;;;;;;30.50;27.20;;;9.20;99.90;;;;;;5094322;28;20040;-64
2023/04/30 01:49:54;;;;;;;28.38;25.15;;;9.20;99.90;;;;;;5092322;28;20048;-63
2023/04/30 01:52:21;;;;;;;35.40;25.80;;;9.20;99.90;;;;;;5092995;28;20047;-63
2023/04/30 01:54:48;;;;;;;30.40;25.50;;;9.20;99.90;;;;;;5094069;28;20487;-63
2023/04/30 01:57:15;;;;;;;31.27;27.30;;;9.20;99.90;;;;;;5094249;28;20491;-63
2023/04/30 01:59:41;;;;;;;33.08;28.27;;;9.10;99.90;;;;;;5092921;28;20044;-62
2023/04/30 02:02:08;;;;;;;31.25;26.50;;;9.10;99.90;;;;;;5092592;28;20044;-62
2023/04/30 02:04:35;;;;;;;31.80;27.00;;;9.10;99.90;;;;;;5093861;28;20056;-63
2023/04/30 02:07:02;;;;;;;30.50;26.95;;;9.00;99.90;;;;;;5092209;28;20140;-63
2023/04/30 02:09:29;;;;;;;30.55;26.65;;;9.00;99.90;;;;;;5091932;28;20069;-62
2023/04/30 02:11:56;;;;;;;36.60;27.77;;;9.00;99.90;;;;;;5092730;28;20070;-62
2023/04/30 02:14:23;;;;;;;32.33;27.15;;;8.90;99.90;;;;;;5093912;28;20058;-62
2023/04/30 02:16:51;;;;;;;36.13;28.55;;;8.90;99.90;;;;;;5092421;28;20040;-63
2023/04/30 02:19:18;;;;;;;33.08;29.23;;;8.90;99.90;;;;;;5092539;28;20046;-64
2023/04/30 02:21:45;;;;;;;38.05;28.73;;;8.90;99.90;;;;;;5093627;28;20048;-62
2023/04/30 02:24:12;;;;;;;34.55;28.70;;;8.90;99.90;;;;;;5092304;28;20051;-63
2023/04/30 02:26:39;;;;;;;36.40;30.63;;;8.80;99.90;;;;;;5093855;28;20081;-63
2023/04/30 02:29:05;;;;;;;41.25;33.00;;;8.80;99.90;;;;;;5093527;28;20040;-62
2023/04/30 02:31:32;;;;;;;38.67;31.88;;;8.80;99.90;;;;;;5075621;28;20090;-64
2023/04/30 02:33:59;;;;;;;39.80;31.25;;;8.80;99.90;;;;;;5092682;28;20426;-63
2023/04/30 02:36:26;;;;;;;37.70;31.42;;;8.80;99.90;;;;;;5092181;28;20067;-64
2023/04/30 02:38:53;;;;;;;42.25;32.15;;;8.80;99.90;;;;;;5093880;28;20044;-62
2023/04/30 02:41:20;;;;;;;37.55;31.98;;;8.70;99.90;;;;;;5097608;28;20408;-62
2023/04/30 02:43:47;;;;;;;38.63;31.73;;;8.70;99.90;;;;;;5097802;28;20036;-63
2023/04/30 02:46:14;;;;;;;40.17;32.45;;;8.80;99.90;;;;;;5096534;28;20040;-62
2023/04/30 02:48:41;;;;;;;39.72;32.38;;;8.80;99.90;;;;;;5097259;28;20087;-62
2023/04/30 02:51:08;;;;;;;40.40;32.95;;;8.70;99.90;;;;;;5097303;28;20040;-63
2023/04/30 02:53:34;;;;;;;40.85;32.63;;;8.70;99.90;;;;;;5096034;28;20063;-63
2023/04/30 02:56:01;;;;;;;39.28;32.72;;;8.70;99.90;;;;;;5097475;28;20040;-63
2023/04/30 02:58:28;;;;;;;43.58;33.03;;;8.70;99.90;;;;;;5097071;28;20051;-63
2023/04/30 03:00:55;;;;;;;38.20;32.00;;;8.70;99.90;;;;;;5095457;28;20056;-63
2023/04/30 03:03:22;;;;;;;40.00;31.73;;;8.70;99.90;;;;;;5095800;28;20068;-62
2023/04/30 03:05:49;;;;;;;40.55;31.60;;;8.70;99.90;;;;;;5097481;28;20068;-62
2023/04/30 03:08:15;;;;;;;39.58;32.05;;;8.70;99.90;;;;;;5095728;28;20051;-64
2023/04/30 03:10:42;;;;;;;37.88;32.90;;;8.70;99.90;;;;;;5095602;28;20036;-62
2023/04/30 03:13:09;;;;;;;40.40;32.38;;;8.70;99.90;;;;;;5095571;28;20126;-63
2023/04/30 03:15:36;;;;;;;40.75;32.95;;;8.70;99.90;;;;;;5079076;28;20460;-63
2023/04/30 03:18:03;;;;;;;46.28;32.63;;;8.60;99.90;;;;;;5096735;28;20035;-63
2023/04/30 03:20:30;;;;;;;39.35;32.63;;;8.60;99.90;;;;;;5095250;28;20040;-63
2023/04/30 03:22:56;;;;;;;40.05;31.83;;;8.60;99.90;;;;;;5096855;28;20067;-62
2023/04/30 03:25:24;;;;;;;40.63;32.53;;;8.60;99.90;;;;;;5095278;28;20406;-64
2023/04/30 03:27:50;;;;;;;40.10;33.15;;;8.60;99.90;;;;;;5096448;28;20043;-62
2023/04/30 03:30:17;;;;;;;40.28;32.78;;;8.60;99.90;;;;;;5096753;28;20040;-64
2023/04/30 03:32:44;;;;;;;42.00;33.20;;;8.60;99.90;;;;;;5095339;28;20044;-62
2023/04/30 03:35:11;;;;;;;40.65;32.35;;;8.60;99.90;;;;;;5097043;28;20064;-63
2023/04/30 03:37:38;;;;;;;40.85;33.90;;;8.60;99.90;;;;;;5096812;28;20439;-64
2023/04/30 03:40:05;;;;;;;42.53;33.88;;;8.50;99.90;;;;;;5095293;28;20052;-64
2023/04/30 03:42:32;;;;;;;38.65;32.17;;;8.50;99.90;;;;;;5095358;28;20048;-63
2023/04/30 03:44:59;;;;;;;39.08;30.92;;;8.50;99.90;;;;;;5095319;28;20040;-63
2023/04/30 03:47:25;;;;;;;39.42;32.22;;;8.50;99.90;;;;;;5094997;28;20062;-63
2023/04/30 03:49:53;;;;;;;37.80;32.20;;;8.50;99.90;;;;;;5095016;28;20033;-64
2023/04/30 03:52:22;;;;;;;36.17;31.42;;;8.40;99.90;;;;;;5095024;28;20048;-64
2023/04/30 03:54:49;;;;;;;42.05;31.73;;;8.40;99.90;;;;;;5095067;28;20036;-64
2023/04/30 03:57:17;;;;;;;36.45;29.95;;;8.30;99.90;;;;;;5094844;28;20450;-63
2023/04/30 03:59:43;;;;;;;39.03;31.63;;;8.30;99.90;;;;;;5094664;28;20131;-64
2023/04/30 04:02:11;;;;;;;45.13;33.10;;;8.30;99.90;;;;;;5094887;28;20082;-62
2023/04/30 04:04:37;;;;;;;39.38;32.13;;;8.30;99.90;;;;;;5094725;28;20479;-64
2023/04/30 04:07:06;;;;;;;40.47;31.30;;;8.30;99.90;;;;;;5094803;28;20471;-64
2023/04/30 04:09:33;;;;;;;43.28;32.10;;;8.30;99.90;;;;;;5077772;28;20127;-62
2023/04/30 04:12:02;;;;;;;37.80;30.90;;;8.30;99.90;;;;;;5094296;28;20043;-63
2023/04/30 04:14:29;;;;;;;42.53;32.47;;;8.30;99.90;;;;;;5094481;28;20454;-63
2023/04/30 04:16:59;;;;;;;42.13;32.58;;;8.30;99.90;;;;;;5094447;28;20068;-62
2023/04/30 04:19:26;;;;;;;40.65;32.25;;;8.30;99.90;;;;;;5094439;28;20051;-62
2023/04/30 04:21:53;;;;;;;40.72;33.97;;;8.30;99.90;;;;;;5094711;28;20109;-63
2023/04/30 04:24:20;;;;;;;40.97;34.38;;;8.40;99.90;;;;;;5094183;28;20071;-62
2023/04/30 04:26:46;;;;;;;45.20;35.45;;;8.30;99.90;;;;;;5094260;28;20058;-63
2023/04/30 04:29:13;;;;;;;42.45;33.63;;;8.30;99.90;;;;;;5093901;28;20093;-62
2023/04/30 04:31:41;;;;;;;42.03;33.03;;;8.30;99.90;;;;;;5094221;28;20040;-63
2023/04/30 04:34:09;;;;;;;41.78;33.40;;;8.30;99.90;;;;;;5094364;28;20036;-63
2023/04/30 04:36:36;;;;;;;38.22;32.10;;;8.20;99.90;;;;;;5094206;28;20414;-62
2023/04/30 04:39:03;;;;;;;42.25;33.78;;;8.20;99.90;;;;;;5095607;28;20067;-63
2023/04/30 04:41:30;;;;;;;41.13;32.83;;;8.30;99.90;;;;;;5095336;28;20086;-63
2023/04/30 04:43:57;;;;;;;44.30;32.50;;;8.30;99.90;;;;;;5094134;28;20495;-62
2023/04/30 04:46:24;;;;;;;41.00;34.20;;;8.30;99.90;;;;;;5093777;28;20044;-64
2023/04/30 04:48:51;;;;;;;42.67;32.70;;;8.30;99.90;;;;;;5093986;28;20443;-60
2023/04/30 04:51:17;;;;;;;42.72;32.67;;;8.20;99.90;;;;;;5095537;28;20127;-64
2023/04/30 04:53:45;;;;;;;40.78;32.78;;;8.30;99.90;;;;;;5095397;28;20437;-62
2023/04/30 04:56:11;;;;;;;41.67;32.33;;;8.20;99.90;;;;;;5094138;28;20147;-63
2023/04/30 04:58:38;;;;;;;41.15;31.58;;;8.20;99.90;;;;;;5095114;28;20512;-63
2023/04/30 05:01:05;;;;;;;40.53;31.58;;;8.20;99.90;;;;;;5092727;28;20056;-63
2023/04/30 05:03:32;;;;;;;39.00;31.30;;;8.20;99.90;;;;;;5094863;28;20118;-61
2023/04/30 05:05:59;;;;;;;40.05;31.20;;;8.30;99.90;;;;;;5093758;28;20044;-64
2023/04/30 05:08:26;;;;;;;34.65;29.17;;;8.30;99.90;;;;;;5094824;28;20387;-64
2023/04/30 05:10:53;;;;;;;40.70;30.13;;;8.40;99.90;;;;;;5093769;28;20123;-63
2023/04/30 05:13:19;;;;;;;36.67;28.05;;;8.40;99.90;;;;;;5093741;28;20036;-64
2023/04/30 05:15:46;;;;;;;35.17;27.52;;;8.50;99.90;;;;;;5094813;28;20039;-62
2023/04/30 05:18:13;;;;;;;33.53;28.15;;;8.50;99.90;;;;;;5094724;28;20059;-62
2023/04/30 05:20:40;;;;;;;32.10;26.80;;;8.50;99.90;;;;;;5094315;28;20043;-62
2023/04/30 05:23:07;;;;;;;33.90;27.00;;;8.50;99.90;;;;;;5094680;28;20071;-61
2023/04/30 05:25:33;;;;;;;31.67;26.33;;;8.60;99.90;;;;;;5094637;28;20131;-61
2023/04/30 05:28:00;;;;;;;30.25;25.92;;;8.70;99.90;;;;;;5094757;28;20446;-62
2023/04/30 05:30:27;;;;;;;34.00;26.30;;;8.70;99.90;;;;;;5094458;28;20040;-61
2023/04/30 05:32:55;;;;;;;33.95;25.92;;;8.70;99.90;;;;;;5110113;28;20126;-61
2023/04/30 05:35:22;;;;;;;31.40;26.60;;;8.70;99.90;;;;;;5114335;28;20097;-63
2023/04/30 05:37:49;;;;;;;31.67;25.67;;;8.80;99.90;;;;;;5114750;28;20371;-63
2023/04/30 05:40:16;;;;;;;31.27;24.90;;;8.70;99.90;;;;;;5114294;28;20096;-61
2023/04/30 05:42:43;;;;;;;32.97;25.85;;;8.70;99.90;;;;;;5114685;28;20036;-61
2023/04/30 05:45:11;;;;;;;29.63;25.45;;;8.80;99.90;;;;;;5114745;28;20463;-62
2023/04/30 05:47:37;;;;;;;33.58;25.60;;;8.70;99.90;;;;;;5114614;28;20035;-62
2023/04/30 05:50:04;;;;;;;31.08;25.85;;;8.80;99.90;;;;;;5114273;28;20035;-62
2023/04/30 05:52:31;;;;;;;33.75;24.98;;;8.80;99.90;;;;;;5114820;28;20061;-61
2023/04/30 05:54:58;;;;;;;29.95;25.55;;;8.90;99.90;;;;;;5114263;28;20036;-61
2023/04/30 05:57:25;;;;;;;28.67;23.83;;;8.90;99.90;;;;;;5115240;28;20038;-60
2023/04/30 05:59:53;;;;;;;30.15;24.70;;;8.90;99.90;;;;;;5114906;28;20039;-63
2023/04/30 06:02:20;;;;;;;32.55;25.10;;;9.00;99.90;;;;;;5113720;28;20047;-61
2023/04/30 06:04:48;;;;;;;34.28;26.10;;;9.00;99.90;;;;;;5114968;28;20489;-63
2023/04/30 06:07:15;;;;;;;30.27;23.42;;;9.10;99.90;;;;;;5114168;28;20418;-62
2023/04/30 06:09:42;;;;;;;26.38;23.52;;;9.10;99.90;;;;;;5113644;28;20043;-62
2023/04/30 06:12:09;;;;;;;30.52;23.83;;;9.20;99.90;;;;;;5112861;28;20363;-61
2023/04/30 06:14:36;;;;;;;26.70;22.80;;;9.20;99.90;;;;;;5113461;28;20044;-62
2023/04/30 06:17:02;;;;;;;28.40;23.30;;;9.30;99.90;;;;;;5114369;28;20044;-61
2023/04/30 06:19:29;;;;;;;24.92;21.63;;;9.40;99.90;;;;;;5114353;28;20070;-61
2023/04/30 06:21:56;;;;;;;29.60;22.15;;;9.40;99.90;;;;;;5113886;28;20443;-62
2023/04/30 06:24:26;;;;;;;25.30;22.60;;;9.50;99.90;;;;;;5114145;28;20104;-62
2023/04/30 06:26:53;;;;;;;27.23;22.58;;;9.60;99.90;;;;;;5114096;28;20470;-61
2023/04/30 06:29:20;;;;;;;27.05;22.48;;;9.60;99.90;;;;;;5114329;28;20060;-61
2023/04/30 06:31:46;;;;;;;28.88;21.90;;;9.70;99.90;;;;;;5114069;28;20044;-62
2023/04/30 06:34:13;;;;;;;27.40;21.30;;;9.80;99.90;;;;;;5114087;28;20119;-63
2023/04/30 06:36:40;;;;;;;26.73;22.20;;;9.80;99.90;;;;;;5114211;28;20040;-61
2023/04/30 06:39:07;;;;;;;30.17;22.88;;;9.90;99.90;;;;;;5114154;28;20074;-62
2023/04/30 06:41:33;;;;;;;30.88;22.52;;;10.00;99.90;;;;;;5112930;28;20383;-62
2023/04/30 06:44:08;;;;;;;25.02;22.33;;;10.00;99.90;;;;;;5112472;28;20039;-63
2023/04/30 06:46:35;;;;;;;33.15;24.15;;;10.10;99.90;;;;;;5112552;28;20398;-62
2023/04/30 06:49:02;;;;;;;31.27;22.80;;;10.20;99.90;;;;;;5113649;28;20425;-61
2023/04/30 06:51:28;;;;;;;28.70;22.33;;;10.20;99.90;;;;;;5112663;28;20381;-61
2023/04/30 06:53:55;;;;;;;36.40;23.65;;;10.30;99.90;;;;;;5114047;28;20048;-61
2023/04/30 06:56:22;;;;;;;28.40;23.48;;;10.40;99.90;;;;;;5113706;28;20478;-61
2023/04/30 06:58:49;;;;;;;28.75;23.05;;;10.50;99.90;;;;;;5113805;28;20067;-62
2023/04/30 07:01:16;;;;;;;31.48;24.40;;;10.50;99.90;;;;;;5112016;28;20091;-61
2023/04/30 07:03:43;;;;;;;27.33;23.15;;;10.60;99.90;;;;;;5113573;28;20104;-61
2023/04/30 07:06:10;;;;;;;30.80;25.55;;;10.70;99.90;;;;;;5112531;28;20462;-63
2023/04/30 07:08:39;;;;;;;30.50;23.95;;;10.80;99.90;;;;;;5113912;28;20078;-62
2023/04/30 07:11:06;;;;;;;32.85;25.42;;;10.80;99.90;;;;;;5113481;28;20078;-63
2023/04/30 07:13:33;;;;;;;35.53;27.80;;;10.90;99.90;;;;;;5113601;28;20036;-61
2023/04/30 07:16:00;;;;;;;31.75;26.48;;;10.90;99.90;;;;;;5113549;28;20478;-62
2023/04/30 07:18:27;;;;;;;30.55;26.48;;;11.00;99.90;;;;;;5113332;28;20043;-61
2023/04/30 07:20:54;;;;;;;32.28;26.98;;;11.10;99.90;;;;;;5113355;28;20043;-63
2023/04/30 07:23:20;;;;;;;33.20;27.85;;;11.20;99.90;;;;;;5113854;28;20101;-63
2023/04/30 07:25:47;;;;;;;35.10;27.00;;;11.20;99.90;;;;;;5114722;28;20043;-63
2023/04/30 07:28:14;;;;;;;35.80;28.33;;;11.30;99.90;;;;;;5117620;28;20136;-61
2023/04/30 07:30:41;;;;;;;31.45;27.35;;;11.40;99.90;;;;;;5116676;28;20043;-62
2023/04/30 07:33:08;;;;;;;36.15;28.58;;;11.40;99.90;;;;;;5117064;28;20062;-62
2023/04/30 07:35:35;;;;;;;36.22;28.25;;;11.50;99.90;;;;;;5117096;28;20483;-62
2023/04/30 07:38:03;;;;;;;35.33;28.05;;;11.60;99.90;;;;;;5117040;28;20114;-62
2023/04/30 07:40:30;;;;;;;35.28;28.95;;;11.70;99.90;;;;;;5116779;28;20111;-62
2023/04/30 07:43:02;;;;;;;33.90;28.00;;;11.80;99.90;;;;;;5117123;28;20036;-62
2023/04/30 07:45:30;;;;;;;39.08;29.88;;;11.90;99.90;;;;;;5117075;28;20039;-62
2023/04/30 07:47:57;;;;;;;34.35;28.70;;;12.00;99.90;;;;;;5109828;28;20032;-62
2023/04/30 07:50:24;;;;;;;32.72;28.27;;;12.10;99.90;;;;;;5114932;28;20470;-61
2023/04/30 07:52:51;;;;;;;35.10;29.85;;;12.20;99.90;;;;;;5115778;28;20088;-63
2023/04/30 07:55:18;;;;;;;33.55;28.23;;;12.30;99.90;;;;;;5113907;28;20027;-62
2023/04/30 07:57:44;;;;;;;31.27;27.75;;;12.40;99.90;;;;;;5096849;28;20032;-63
2023/04/30 08:00:12;;;;;;;31.10;26.92;;;12.50;99.90;;;;;;5112676;28;20074;-62
2023/04/30 08:02:39;;;;;;;32.35;27.27;;;12.60;99.90;;;;;;5096410;28;20068;-62
2023/04/30 08:05:06;;;;;;;36.15;28.02;;;12.60;99.90;;;;;;5096251;28;20052;-61
2023/04/30 08:07:33;;;;;;;36.53;28.55;;;12.70;99.90;;;;;;5096180;28;20093;-62
2023/04/30 08:09:59;;;;;;;33.25;27.98;;;12.80;99.90;;;;;;5094375;28;20405;-61
2023/04/30 08:12:26;;;;;;;31.98;26.58;;;12.90;99.90;;;;;;5095769;28;20071;-61
2023/04/30 08:14:53;;;;;;;33.63;26.92;;;13.00;99.90;;;;;;5094633;28;20044;-62
2023/04/30 08:17:20;;;;;;;30.63;27.33;;;13.10;99.90;;;;;;5095840;28;20059;-62
2023/04/30 08:19:47;;;;;;;37.58;27.95;;;13.10;99.90;;;;;;5095467;28;20083;-61
2023/04/30 08:22:14;;;;;;;31.73;26.52;;;13.20;99.90;;;;;;5095852;28;20043;-61
2023/04/30 08:24:41;;;;;;;31.88;25.73;;;13.20;99.90;;;;;;5095992;28;20097;-62
2023/04/30 08:27:07;;;;;;;30.83;25.38;;;13.30;99.90;;;;;;5095756;28;20040;-62
2023/04/30 08:29:34;;;;;;;29.33;25.70;;;13.40;99.90;;;;;;5095477;28;20508;-62
2023/04/30 08:32:01;;;;;;;32.55;25.10;;;13.50;99.90;;;;;;5095275;28;20043;-62
2023/04/30 08:34:28;;;;;;;31.70;26.17;;;13.50;99.90;;;;;;5095858;28;20060;-62
2023/04/30 08:36:54;;;;;;;29.83;25.95;;;13.60;99.90;;;;;;5094699;28;20074;-63
2023/04/30 08:39:21;;;;;;;26.55;23.55;;;13.70;99.90;;;;;;5095497;28;20122;-62
2023/04/30 08:41:49;;;;;;;28.92;24.65;;;13.80;99.90;;;;;;5095398;28;20043;-63
2023/04/30 08:44:16;;;;;;;30.45;25.13;;;13.90;99.90;;;;;;5095396;28;20079;-62
2023/04/30 08:46:43;;;;;;;26.58;23.52;;;14.00;99.90;;;;;;5095339;28;20044;-62
2023/04/30 08:49:10;;;;;;;28.55;24.52;;;14.00;99.90;;;;;;5095330;28;20119;-62
2023/04/30 08:51:36;;;;;;;28.88;23.35;;;14.10;99.90;;;;;;5095178;28;20483;-62
2023/04/30 08:54:03;;;;;;;27.33;22.25;;;14.10;99.90;;;;;;5093722;28;20036;-63
2023/04/30 08:56:32;;;;;;;25.77;22.85;;;14.20;99.90;;;;;;5095157;28;20066;-63
2023/04/30 08:58:59;;;;;;;26.27;23.45;;;14.20;99.90;;;;;;5095406;28;20408;-61
2023/04/30 09:01:26;;;;;;;26.55;21.88;;;14.30;99.90;;;;;;5094714;28;20402;-63
2023/04/30 09:03:52;;;;;;;24.17;21.05;;;14.40;99.90;;;;;;5095338;28;20119;-64
2023/04/30 09:06:20;;;;;;;21.08;18.88;;;14.40;99.90;;;;;;5095045;28;20044;-62
2023/04/30 09:08:46;;;;;;;21.02;18.13;;;14.40;99.90;;;;;;5094858;28;20078;-60
2023/04/30 09:11:13;;;;;;;21.10;17.00;;;14.50;99.90;;;;;;5095159;28;20093;-63
2023/04/30 09:13:40;;;;;;;18.67;16.67;;;14.60;99.90;;;;;;5093488;28;20059;-62
2023/04/30 09:16:08;;;;;;;19.80;17.30;;;14.60;99.90;;;;;;5094941;28;20044;-63
2023/04/30 09:18:35;;;;;;;20.80;18.10;;;14.70;99.90;;;;;;5095054;28;20118;-61
2023/04/30 09:21:02;;;;;;;19.88;17.30;;;14.80;99.90;;;;;;5094626;28;20036;-63
2023/04/30 09:23:29;;;;;;;19.45;16.35;;;14.80;99.90;;;;;;5094948;28;20093;-63
2023/04/30 09:25:56;;;;;;;17.45;15.07;;;14.90;99.90;;;;;;5094693;28;20058;-65
2023/04/30 09:28:24;;;;;;;16.77;14.98;;;15.00;99.90;;;;;;5094456;28;20067;-64
2023/04/30 09:30:51;;;;;;;15.82;13.98;;;15.00;99.90;;;;;;5094464;28;20032;-62
2023/04/30 09:33:18;;;;;;;16.50;13.98;;;15.00;99.90;;;;;;5094758;28;20371;-64
2023/04/30 09:35:45;;;;;;;17.38;14.02;;;15.10;99.90;;;;;;5094526;28;20093;-64
2023/04/30 09:38:12;;;;;;;14.25;12.48;;;15.20;99.90;;;;;;5094471;28;20032;-64
2023/04/30 09:40:41;;;;;;;15.65;12.85;;;15.20;99.90;;;;;;5094567;28;20059;-61
2023/04/30 09:43:08;;;;;;;13.60;11.77;;;15.30;99.90;;;;;;5094337;28;20036;-63
2023/04/30 09:45:35;;;;;;;17.30;13.52;;;15.40;99.90;;;;;;5094237;28;20036;-64
2023/04/30 09:48:02;;;;;;;16.63;14.82;;;15.40;99.90;;;;;;5092925;28;20135;-63
2023/04/30 09:50:46;;;;;;;16.55;13.60;;;15.50;99.90;;;;;;5094092;28;20036;-63
2023/04/30 09:53:13;;;;;;;17.45;13.85;;;15.50;99.90;;;;;;5093964;28;20048;-63
2023/04/30 09:55:40;;;;;;;17.23;13.45;;;15.60;99.90;;;;;;5094060;28;20483;-62
2023/04/30 09:58:06;;;;;;;15.55;12.60;;;15.70;99.90;;;;;;5094172;28;20036;-63
2023/04/30 10:00:33;;;;;;;15.63;11.52;;;15.70;99.90;;;;;;5093725;28;20048;-61
2023/04/30 10:03:00;;;;;;;12.95;10.50;;;15.80;99.90;;;;;;5093960;28;20036;-64
2023/04/30 10:05:27;;;;;;;12.35;11.07;;;15.80;99.90;;;;;;5093909;28;20043;-63
2023/04/30 10:07:54;;;;;;;13.27;10.35;;;15.90;99.90;;;;;;5092608;28;20151;-62
2023/04/30 10:10:20;;;;;;;16.35;11.88;;;16.00;99.90;;;;;;5092465;28;20044;-62
2023/04/30 10:12:47;;;;;;;12.98;11.65;;;16.00;99.90;;;;;;5094043;28;20040;-63
2023/04/30 10:15:15;;;;;;;14.98;13.00;;;16.10;99.90;;;;;;5093525;28;20042;-63
2023/04/30 10:17:43;;;;;;;17.20;13.73;;;16.20;99.90;;;;;;5093621;28;20058;-63
2023/04/30 10:20:10;;;;;;;15.13;13.45;;;16.20;99.90;;;;;;5093757;28;20040;-62
2023/04/30 10:22:36;;;;;;;16.30;13.85;;;16.30;99.90;;;;;;5093749;28;20044;-63
2023/04/30 10:25:03;;;;;;;16.83;13.95;;;16.40;99.90;;;;;;5093618;28;20126;-64
2023/04/30 10:27:31;;;;;;;14.82;12.43;;;16.50;99.90;;;;;;5093469;28;20044;-63
2023/04/30 10:29:58;;;;;;;17.90;14.95;;;16.60;99.90;;;;;;5093361;28;20058;-63
2023/04/30 10:32:25;;;;;;;17.58;15.73;;;16.70;99.90;;;;;;5093687;28;20126;-63
2023/04/30 10:34:52;;;;;;;17.73;14.75;;;16.70;99.90;;;;;;5093429;28;20380;-63
2023/04/30 10:37:20;;;;;;;19.23;15.00;;;16.70;99.90;;;;;;5093250;28;20036;-62
2023/04/30 10:39:48;;;;;;;16.02;14.35;;;16.80;99.90;;;;;;5093202;28;20051;-62
2023/04/30 10:42:14;;;;;;;16.95;13.93;;;16.80;99.90;;;;;;5093843;28;20051;-62
2023/04/30 10:44:41;;;;;;;16.42;13.27;;;16.90;99.90;;;;;;5091966;28;20454;-62
2023/04/30 10:47:08;;;;;;;18.77;12.98;;;17.00;99.90;;;;;;5093329;28;20556;-63
2023/04/30 10:49:35;;;;;;;13.80;11.73;;;17.10;99.90;;;;;;5093403;28;20126;-62
2023/04/30 10:52:02;;;;;;;14.65;10.85;;;17.20;99.80;;;;;;5093337;28;20365;-62
2023/04/30 10:54:29;;;;;;;11.50;9.00;;;17.30;99.70;;;;;;5093404;28;20040;-61
2023/04/30 10:56:57;;;;;;;9.85;8.02;;;17.50;99.00;;;;;;5093225;28;20044;-62
2023/04/30 10:59:23;;;;;;;8.68;6.95;;;17.60;98.30;;;;;;5093681;28;20040;-61
2023/04/30 11:01:50;;;;;;;8.60;7.25;;;17.70;98.20;;;;;;5096953;28;20479;-63
2023/04/30 11:04:17;;;;;;;8.07;7.18;;;17.90;97.80;;;;;;5096768;28;20127;-63
2023/04/30 11:06:44;;;;;;;10.45;6.53;;;18.00;97.20;;;;;;5097392;28;20475;-62
2023/04/30 11:09:10;;;;;;;7.55;6.13;;;18.10;97.10;;;;;;5096928;28;20036;-62
2023/04/30 11:11:37;;;;;;;9.18;6.78;;;18.20;97.00;;;;;;5096963;28;20073;-62
2023/04/30 11:14:04;;;;;;;8.85;7.03;;;18.20;97.00;;;;;;5097140;28;20070;-62
2023/04/30 11:16:31;;;;;;;8.23;6.75;;;18.30;96.80;;;;;;5096061;28;20036;-63
2023/04/30 11:18:58;;;;;;;7.97;7.18;;;18.40;96.90;;;;;;5097110;28;20046;-63
2023/04/30 11:21:25;;;;;;;8.75;6.90;;;18.50;96.40;;;;;;5096658;28;20449;-63
2023/04/30 11:23:53;;;;;;;9.50;7.43;;;18.50;96.00;;;;;;5096460;28;20428;-62
2023/04/30 11:26:20;;;;;;;8.52;6.88;;;18.50;95.80;;;;;;5096777;28;20086;-62
2023/04/30 11:28:47;;;;;;;11.35;6.93;;;18.60;96.30;;;;;;5112317;28;20047;-62
2023/04/30 11:31:13;;;;;;;11.15;7.68;;;18.70;96.20;;;;;;5116246;28;20040;-61
2023/04/30 11:33:41;;;;;;;8.35;7.15;;;18.70;95.90;;;;;;5112987;28;20082;-63
2023/04/30 11:36:08;;;;;;;8.20;7.25;;;18.80;96.30;;;;;;5115259;28;20035;-64
2023/04/30 11:38:35;;;;;;;9.07;7.25;;;18.80;96.00;;;;;;5115609;28;20040;-63
2023/04/30 11:41:02;;;;;;;12.48;8.50;;;18.80;96.00;;;;;;5116234;28;20092;-63
2023/04/30 11:43:28;;;;;;;9.25;7.70;;;18.80;96.00;;;;;;5116204;28;20040;-63
2023/04/30 11:45:55;;;;;;;8.35;7.22;;;18.70;95.90;;;;;;5117043;28;20509;-62
2023/04/30 11:48:22;;;;;;;10.35;7.28;;;18.80;95.90;;;;;;5116529;28;20078;-63
2023/04/30 11:50:49;;;;;;;8.52;6.75;;;18.80;96.00;;;;;;5116855;28;20089;-65
2023/04/30 11:53:15;;;;;;;9.65;6.88;;;18.90;96.20;;;;;;5116609;28;20067;-63
2023/04/30 11:55:42;;;;;;;7.90;6.28;;;19.00;95.60;;;;;;5116525;28;20540;-62
2023/04/30 11:58:09;;;;;;;7.55;6.20;;;19.10;94.80;;;;;;5116717;28;20098;-61
2023/04/30 12:00:36;;;;;;;7.38;5.28;;;19.10;95.10;;;;;;5116204;28;20146;-64
2023/04/30 12:03:03;;;;;;;6.78;5.25;;;19.10;93.70;;;;;;5116391;28;20047;-63
2023/04/30 12:05:30;;;;;;;7.40;5.82;;;19.20;94.40;;;;;;5116448;28;20043;-63
2023/04/30 12:07:57;;;;;;;6.78;5.60;;;19.20;94.40;;;;;;5116709;28;20048;-64
2023/04/30 12:10:24;;;;;;;6.47;5.43;;;19.30;94.10;;;;;;5115001;28;20040;-62
2023/04/30 12:12:51;;;;;;;8.00;5.28;;;19.30;94.00;;;;;;5115335;28;20044;-64
2023/04/30 12:15:18;;;;;;;8.35;6.20;;;19.20;93.30;;;;;;5116465;28;20036;-61
2023/04/30 12:17:45;;;;;;;9.70;6.72;;;19.20;93.70;;;;;;5116550;28;20044;-62
2023/04/30 12:20:13;;;;;;;11.35;7.00;;;19.20;93.60;;;;;;5116113;28;20471;-64
2023/04/30 12:22:40;;;;;;;9.02;7.20;;;19.20;93.70;;;;;;5116132;28;20511;-63
2023/04/30 12:25:08;;;;;;;9.52;6.07;;;19.20;94.10;;;;;;5116035;28;20429;-61
2023/04/30 12:27:35;;;;;;;9.38;5.85;;;19.30;94.10;;;;;;5114941;27;20039;-63
2023/04/30 12:30:02;;;;;;;7.15;5.07;;;19.40;94.30;;;;;;5115944;28;20039;-63
2023/04/30 12:32:29;;;;;;;7.40;5.47;;;19.50;94.40;;;;;;5115647;28;20089;-62